sensor_id;sensor_type;location;lat;lon;timestamp;P1;durP1;ratioP1;P2;durP2;ratioP2
51814;SDS011;37874;53.158;6.766;2023-04-25T00:02:13;4.82;;;1.55;;
51814;SDS011;37874;53.158;6.766;2023-04-25T00:04:39;4.63;;;1.50;;
51814;SDS011;37874;53.158;6.766;2023-04-25T00:07:05;5.18;;;1.42;;
51814;SDS011;37874;53.158;6.766;2023-04-25T00:09:31;3.50;;;1.40;;
51814;SDS011;37874;53.158;6.766;2023-04-25T00:11:57;4.72;;;1.40;;
51814;SDS011;37874;53.158;6.766;2023-04-25T00:14:22;4.55;;;1.58;;
51814;SDS011;37874;53.158;6.766;2023-04-25T00:16:48;3.90;;;1.45;;
51814;SDS011;37874;53.158;6.766;2023-04-25T00:19:16;4.55;;;1.38;;
51814;SDS011;37874;53.158;6.766;2023-04-25T00:21:42;5.88;;;1.60;;
51814;SDS011;37874;53.158;6.766;2023-04-25T00:24:07;3.75;;;1.13;;
51814;SDS011;37874;53.158;6.766;2023-04-25T00:26:34;4.53;;;1.50;;
51814;SDS011;37874;53.158;6.766;2023-04-25T00:29:00;4.32;;;1.20;;
51814;SDS011;37874;53.158;6.766;2023-04-25T00:31:26;4.68;;;1.42;;
51814;SDS011;37874;53.158;6.766;2023-04-25T00:33:52;4.93;;;1.55;;
51814;SDS011;37874;53.158;6.766;2023-04-25T00:36:18;3.40;;;1.23;;
51814;SDS011;37874;53.158;6.766;2023-04-25T00:38:44;8.77;;;2.10;;
51814;SDS011;37874;53.158;6.766;2023-04-25T00:41:09;5.20;;;1.70;;
51814;SDS011;37874;53.158;6.766;2023-04-25T00:43:36;3.88;;;1.17;;
51814;SDS011;37874;53.158;6.766;2023-04-25T00:46:02;5.07;;;1.45;;
51814;SDS011;37874;53.158;6.766;2023-04-25T00:48:28;5.85;;;1.50;;
51814;SDS011;37874;53.158;6.766;2023-04-25T00:50:55;2.88;;;1.10;;
51814;SDS011;37874;53.158;6.766;2023-04-25T00:53:23;4.20;;;1.58;;
51814;SDS011;37874;53.158;6.766;2023-04-25T00:55:50;4.70;;;1.27;;
51814;SDS011;37874;53.158;6.766;2023-04-25T00:58:17;4.50;;;1.55;;
51814;SDS011;37874;53.158;6.766;2023-04-25T01:00:43;4.00;;;1.33;;
51814;SDS011;37874;53.158;6.766;2023-04-25T01:03:13;4.65;;;1.20;;
51814;SDS011;37874;53.158;6.766;2023-04-25T01:05:41;5.50;;;1.50;;
51814;SDS011;37874;53.158;6.766;2023-04-25T01:08:07;5.22;;;1.30;;
51814;SDS011;37874;53.158;6.766;2023-04-25T01:10:33;3.63;;;1.30;;
51814;SDS011;37874;53.158;6.766;2023-04-25T01:12:59;3.35;;;1.30;;
51814;SDS011;37874;53.158;6.766;2023-04-25T01:15:24;3.50;;;1.20;;
51814;SDS011;37874;53.158;6.766;2023-04-25T01:17:50;5.68;;;1.55;;
51814;SDS011;37874;53.158;6.766;2023-04-25T01:20:16;3.15;;;1.23;;
51814;SDS011;37874;53.158;6.766;2023-04-25T01:22:42;3.80;;;1.30;;
51814;SDS011;37874;53.158;6.766;2023-04-25T05:27:13;4.78;;;1.33;;
51814;SDS011;37874;53.158;6.766;2023-04-25T05:29:41;2.53;;;1.10;;
51814;SDS011;37874;53.158;6.766;2023-04-25T05:32:06;2.97;;;1.20;;
51814;SDS011;37874;53.158;6.766;2023-04-25T05:34:33;4.38;;;1.58;;
51814;SDS011;37874;53.158;6.766;2023-04-25T05:36:59;3.17;;;1.13;;
51814;SDS011;37874;53.158;6.766;2023-04-25T05:39:24;3.53;;;1.27;;
51814;SDS011;37874;53.158;6.766;2023-04-25T05:41:50;3.35;;;0.88;;
51814;SDS011;37874;53.158;6.766;2023-04-25T05:44:15;2.28;;;0.90;;
51814;SDS011;37874;53.158;6.766;2023-04-25T05:46:41;4.57;;;1.08;;
51814;SDS011;37874;53.158;6.766;2023-04-25T05:49:07;3.88;;;1.20;;
51814;SDS011;37874;53.158;6.766;2023-04-25T05:51:32;3.08;;;1.08;;
51814;SDS011;37874;53.158;6.766;2023-04-25T05:53:58;2.55;;;1.00;;
51814;SDS011;37874;53.158;6.766;2023-04-25T05:56:24;2.80;;;1.13;;
51814;SDS011;37874;53.158;6.766;2023-04-25T05:58:49;3.42;;;1.10;;
51814;SDS011;37874;53.158;6.766;2023-04-25T06:01:15;3.28;;;1.23;;
51814;SDS011;37874;53.158;6.766;2023-04-25T06:03:41;2.85;;;1.10;;
51814;SDS011;37874;53.158;6.766;2023-04-25T06:06:08;2.70;;;0.95;;
51814;SDS011;37874;53.158;6.766;2023-04-25T06:08:34;3.10;;;1.08;;
51814;SDS011;37874;53.158;6.766;2023-04-25T06:11:00;3.63;;;1.10;;
51814;SDS011;37874;53.158;6.766;2023-04-25T06:13:25;2.90;;;0.90;;
51814;SDS011;37874;53.158;6.766;2023-04-25T06:15:51;4.18;;;1.10;;
51814;SDS011;37874;53.158;6.766;2023-04-25T06:18:17;2.00;;;1.00;;
51814;SDS011;37874;53.158;6.766;2023-04-25T06:20:42;3.42;;;1.00;;
51814;SDS011;37874;53.158;6.766;2023-04-25T06:23:08;2.53;;;1.00;;
51814;SDS011;37874;53.158;6.766;2023-04-25T06:25:33;2.22;;;0.98;;
51814;SDS011;37874;53.158;6.766;2023-04-25T06:27:59;3.53;;;1.13;;
51814;SDS011;37874;53.158;6.766;2023-04-25T06:30:24;3.78;;;1.10;;
51814;SDS011;37874;53.158;6.766;2023-04-25T06:32:51;2.85;;;1.08;;
51814;SDS011;37874;53.158;6.766;2023-04-25T06:35:18;2.53;;;0.90;;
51814;SDS011;37874;53.158;6.766;2023-04-25T06:37:44;4.07;;;1.17;;
51814;SDS011;37874;53.158;6.766;2023-04-25T06:40:09;3.08;;;1.10;;
51814;SDS011;37874;53.158;6.766;2023-04-25T06:42:36;2.58;;;1.02;;
51814;SDS011;37874;53.158;6.766;2023-04-25T06:45:01;2.13;;;0.95;;
51814;SDS011;37874;53.158;6.766;2023-04-25T06:47:27;3.85;;;0.98;;
51814;SDS011;37874;53.158;6.766;2023-04-25T06:49:53;2.13;;;0.85;;
51814;SDS011;37874;53.158;6.766;2023-04-25T06:52:18;3.45;;;0.82;;
51814;SDS011;37874;53.158;6.766;2023-04-25T06:54:44;3.78;;;0.98;;
51814;SDS011;37874;53.158;6.766;2023-04-25T06:57:10;2.33;;;0.90;;
51814;SDS011;37874;53.158;6.766;2023-04-25T06:59:36;3.47;;;1.00;;
51814;SDS011;37874;53.158;6.766;2023-04-25T07:02:01;2.67;;;1.20;;
51814;SDS011;37874;53.158;6.766;2023-04-25T07:04:27;3.33;;;1.17;;
51814;SDS011;37874;53.158;6.766;2023-04-25T07:06:52;5.03;;;1.30;;
51814;SDS011;37874;53.158;6.766;2023-04-25T07:09:18;3.42;;;1.13;;
51814;SDS011;37874;53.158;6.766;2023-04-25T07:11:44;2.78;;;1.13;;
51814;SDS011;37874;53.158;6.766;2023-04-25T07:14:10;3.58;;;1.00;;
51814;SDS011;37874;53.158;6.766;2023-04-25T07:16:35;2.35;;;0.90;;
51814;SDS011;37874;53.158;6.766;2023-04-25T07:19:01;2.70;;;1.15;;
51814;SDS011;37874;53.158;6.766;2023-04-25T07:21:26;2.78;;;0.82;;
51814;SDS011;37874;53.158;6.766;2023-04-25T07:23:52;2.85;;;1.02;;
51814;SDS011;37874;53.158;6.766;2023-04-25T07:26:17;2.80;;;1.10;;
51814;SDS011;37874;53.158;6.766;2023-04-25T07:28:43;3.33;;;0.85;;
51814;SDS011;37874;53.158;6.766;2023-04-25T07:31:09;3.88;;;1.00;;
51814;SDS011;37874;53.158;6.766;2023-04-25T07:33:34;1.90;;;0.80;;
51814;SDS011;37874;53.158;6.766;2023-04-25T07:36:00;2.25;;;0.93;;
51814;SDS011;37874;53.158;6.766;2023-04-25T07:38:26;2.47;;;0.90;;
51814;SDS011;37874;53.158;6.766;2023-04-25T07:40:51;1.95;;;0.73;;
51814;SDS011;37874;53.158;6.766;2023-04-25T07:43:17;2.67;;;0.80;;
51814;SDS011;37874;53.158;6.766;2023-04-25T07:45:43;1.80;;;0.80;;
51814;SDS011;37874;53.158;6.766;2023-04-25T07:48:09;3.17;;;0.85;;
51814;SDS011;37874;53.158;6.766;2023-04-25T07:50:35;2.10;;;0.80;;
51814;SDS011;37874;53.158;6.766;2023-04-25T07:53:01;2.60;;;0.70;;
51814;SDS011;37874;53.158;6.766;2023-04-25T07:55:27;2.50;;;0.80;;
51814;SDS011;37874;53.158;6.766;2023-04-25T07:57:53;2.63;;;0.80;;
51814;SDS011;37874;53.158;6.766;2023-04-25T08:00:18;3.33;;;1.30;;
51814;SDS011;37874;53.158;6.766;2023-04-25T08:02:44;2.13;;;0.85;;
51814;SDS011;37874;53.158;6.766;2023-04-25T08:05:10;4.25;;;0.90;;
51814;SDS011;37874;53.158;6.766;2023-04-25T08:07:39;2.55;;;0.90;;
51814;SDS011;37874;53.158;6.766;2023-04-25T08:10:05;3.75;;;1.20;;
51814;SDS011;37874;53.158;6.766;2023-04-25T08:12:32;3.35;;;0.90;;
51814;SDS011;37874;53.158;6.766;2023-04-25T08:14:58;2.17;;;0.90;;
51814;SDS011;37874;53.158;6.766;2023-04-25T08:17:23;2.33;;;0.70;;
51814;SDS011;37874;53.158;6.766;2023-04-25T08:19:49;2.20;;;0.90;;
51814;SDS011;37874;53.158;6.766;2023-04-25T08:22:15;1.95;;;0.70;;
51814;SDS011;37874;53.158;6.766;2023-04-25T08:24:41;2.88;;;0.88;;
51814;SDS011;37874;53.158;6.766;2023-04-25T08:27:07;2.92;;;0.93;;
51814;SDS011;37874;53.158;6.766;2023-04-25T08:29:33;2.30;;;0.88;;
51814;SDS011;37874;53.158;6.766;2023-04-25T08:31:59;1.92;;;0.75;;
51814;SDS011;37874;53.158;6.766;2023-04-25T08:34:24;1.67;;;0.60;;
51814;SDS011;37874;53.158;6.766;2023-04-25T08:36:51;2.95;;;0.70;;
51814;SDS011;37874;53.158;6.766;2023-04-25T08:39:16;2.38;;;0.75;;
51814;SDS011;37874;53.158;6.766;2023-04-25T08:41:42;1.77;;;0.68;;
51814;SDS011;37874;53.158;6.766;2023-04-25T08:44:10;2.88;;;0.82;;
51814;SDS011;37874;53.158;6.766;2023-04-25T08:46:37;2.08;;;0.80;;
51814;SDS011;37874;53.158;6.766;2023-04-25T08:49:07;1.48;;;0.50;;
51814;SDS011;37874;53.158;6.766;2023-04-25T08:51:36;1.73;;;0.60;;
51814;SDS011;37874;53.158;6.766;2023-04-25T08:54:10;2.38;;;0.68;;
51814;SDS011;37874;53.158;6.766;2023-04-25T08:56:41;2.15;;;0.80;;
51814;SDS011;37874;53.158;6.766;2023-04-25T08:59:11;2.78;;;0.70;;
51814;SDS011;37874;53.158;6.766;2023-04-25T09:01:37;2.60;;;0.70;;
51814;SDS011;37874;53.158;6.766;2023-04-25T09:04:02;2.28;;;0.80;;
51814;SDS011;37874;53.158;6.766;2023-04-25T09:06:28;2.90;;;0.90;;
51814;SDS011;37874;53.158;6.766;2023-04-25T09:09:02;1.55;;;0.60;;
51814;SDS011;37874;53.158;6.766;2023-04-25T09:11:29;3.38;;;1.10;;
51814;SDS011;37874;53.158;6.766;2023-04-25T09:14:14;2.67;;;0.88;;
51814;SDS011;37874;53.158;6.766;2023-04-25T09:19:28;3.33;;;1.05;;
51814;SDS011;37874;53.158;6.766;2023-04-25T09:21:56;2.38;;;0.80;;
51814;SDS011;37874;53.158;6.766;2023-04-25T09:27:05;1.85;;;0.65;;
51814;SDS011;37874;53.158;6.766;2023-04-25T09:29:35;3.28;;;0.80;;
51814;SDS011;37874;53.158;6.766;2023-04-25T09:32:18;2.05;;;0.60;;
51814;SDS011;37874;53.158;6.766;2023-04-25T09:34:55;2.30;;;0.95;;
51814;SDS011;37874;53.158;6.766;2023-04-25T09:39:58;1.70;;;0.70;;
51814;SDS011;37874;53.158;6.766;2023-04-25T09:42:27;2.25;;;0.60;;
51814;SDS011;37874;53.158;6.766;2023-04-25T09:44:54;2.20;;;0.80;;
51814;SDS011;37874;53.158;6.766;2023-04-25T09:47:22;1.77;;;0.70;;
51814;SDS011;37874;53.158;6.766;2023-04-25T09:49:49;2.35;;;0.88;;
51814;SDS011;37874;53.158;6.766;2023-04-25T09:52:16;3.58;;;0.70;;
51814;SDS011;37874;53.158;6.766;2023-04-25T09:54:45;2.28;;;0.77;;
51814;SDS011;37874;53.158;6.766;2023-04-25T09:57:13;2.45;;;0.82;;
51814;SDS011;37874;53.158;6.766;2023-04-25T09:59:50;2.92;;;0.65;;
51814;SDS011;37874;53.158;6.766;2023-04-25T10:02:17;2.85;;;0.80;;
51814;SDS011;37874;53.158;6.766;2023-04-25T10:04:47;2.42;;;0.70;;
51814;SDS011;37874;53.158;6.766;2023-04-25T10:07:16;2.72;;;0.95;;
51814;SDS011;37874;53.158;6.766;2023-04-25T10:09:42;3.00;;;0.90;;
51814;SDS011;37874;53.158;6.766;2023-04-25T10:12:12;3.00;;;0.85;;
51814;SDS011;37874;53.158;6.766;2023-04-25T10:14:37;4.38;;;0.90;;
51814;SDS011;37874;53.158;6.766;2023-04-25T10:17:05;2.55;;;0.93;;
51814;SDS011;37874;53.158;6.766;2023-04-25T10:19:31;2.53;;;0.77;;
51814;SDS011;37874;53.158;6.766;2023-04-25T10:22:03;3.58;;;0.93;;
51814;SDS011;37874;53.158;6.766;2023-04-25T10:24:33;2.83;;;0.85;;
51814;SDS011;37874;53.158;6.766;2023-04-25T10:27:01;3.20;;;0.82;;
51814;SDS011;37874;53.158;6.766;2023-04-25T10:29:27;3.17;;;0.77;;
51814;SDS011;37874;53.158;6.766;2023-04-25T10:31:53;2.60;;;0.90;;
51814;SDS011;37874;53.158;6.766;2023-04-25T10:34:19;2.55;;;0.70;;
51814;SDS011;37874;53.158;6.766;2023-04-25T10:36:52;1.67;;;0.60;;
51814;SDS011;37874;53.158;6.766;2023-04-25T10:39:24;2.00;;;0.60;;
51814;SDS011;37874;53.158;6.766;2023-04-25T10:41:56;1.70;;;0.60;;
51814;SDS011;37874;53.158;6.766;2023-04-25T10:44:26;2.80;;;0.82;;
51814;SDS011;37874;53.158;6.766;2023-04-25T10:46:54;2.03;;;0.73;;
51814;SDS011;37874;53.158;6.766;2023-04-25T10:49:29;1.80;;;0.65;;
51814;SDS011;37874;53.158;6.766;2023-04-25T10:52:19;3.33;;;0.70;;
51814;SDS011;37874;53.158;6.766;2023-04-25T10:54:51;3.83;;;0.75;;
51814;SDS011;37874;53.158;6.766;2023-04-25T10:59:58;2.42;;;0.73;;
51814;SDS011;37874;53.158;6.766;2023-04-25T11:02:27;1.73;;;0.60;;
51814;SDS011;37874;53.158;6.766;2023-04-25T11:04:54;2.65;;;0.70;;
51814;SDS011;37874;53.158;6.766;2023-04-25T11:09:46;2.20;;;0.63;;
51814;SDS011;37874;53.158;6.766;2023-04-25T11:12:11;4.63;;;0.70;;
51814;SDS011;37874;53.158;6.766;2023-04-25T11:14:38;1.48;;;0.60;;
51814;SDS011;37874;53.158;6.766;2023-04-25T11:17:03;3.35;;;1.00;;
51814;SDS011;37874;53.158;6.766;2023-04-25T11:19:30;3.33;;;0.85;;
51814;SDS011;37874;53.158;6.766;2023-04-25T11:22:00;1.55;;;0.73;;
51814;SDS011;37874;53.158;6.766;2023-04-25T11:24:30;2.95;;;0.90;;
51814;SDS011;37874;53.158;6.766;2023-04-25T11:27:00;2.40;;;0.70;;
51814;SDS011;37874;53.158;6.766;2023-04-25T11:29:31;2.28;;;0.63;;
51814;SDS011;37874;53.158;6.766;2023-04-25T11:31:57;3.05;;;0.60;;
51814;SDS011;37874;53.158;6.766;2023-04-25T11:34:23;3.22;;;0.80;;
51814;SDS011;37874;53.158;6.766;2023-04-25T11:36:50;3.25;;;0.70;;
51814;SDS011;37874;53.158;6.766;2023-04-25T11:39:17;2.42;;;0.88;;
51814;SDS011;37874;53.158;6.766;2023-04-25T11:41:44;1.52;;;0.70;;
51814;SDS011;37874;53.158;6.766;2023-04-25T11:44:10;3.45;;;0.90;;
51814;SDS011;37874;53.158;6.766;2023-04-25T11:46:36;2.15;;;0.68;;
51814;SDS011;37874;53.158;6.766;2023-04-25T11:49:02;2.25;;;0.65;;
51814;SDS011;37874;53.158;6.766;2023-04-25T11:51:29;2.58;;;0.80;;
51814;SDS011;37874;53.158;6.766;2023-04-25T11:53:55;3.80;;;0.65;;
51814;SDS011;37874;53.158;6.766;2023-04-25T11:56:20;4.05;;;0.70;;
51814;SDS011;37874;53.158;6.766;2023-04-25T11:58:53;1.88;;;0.77;;
51814;SDS011;37874;53.158;6.766;2023-04-25T12:01:41;2.85;;;0.80;;
51814;SDS011;37874;53.158;6.766;2023-04-25T12:04:13;2.75;;;1.02;;
51814;SDS011;37874;53.158;6.766;2023-04-25T12:06:41;1.70;;;0.60;;
51814;SDS011;37874;53.158;6.766;2023-04-25T12:09:11;1.77;;;0.68;;
51814;SDS011;37874;53.158;6.766;2023-04-25T12:11:41;2.45;;;0.80;;
51814;SDS011;37874;53.158;6.766;2023-04-25T12:14:11;2.33;;;0.63;;
51814;SDS011;37874;53.158;6.766;2023-04-25T12:16:45;1.63;;;0.50;;
51814;SDS011;37874;53.158;6.766;2023-04-25T12:19:15;2.88;;;0.70;;
51814;SDS011;37874;53.158;6.766;2023-04-25T12:21:42;2.08;;;0.60;;
51814;SDS011;37874;53.158;6.766;2023-04-25T12:24:15;2.80;;;0.70;;
51814;SDS011;37874;53.158;6.766;2023-04-25T12:27:02;3.92;;;0.70;;
51814;SDS011;37874;53.158;6.766;2023-04-25T12:29:31;2.55;;;0.60;;
51814;SDS011;37874;53.158;6.766;2023-04-25T12:31:57;3.40;;;0.57;;
51814;SDS011;37874;53.158;6.766;2023-04-25T12:34:24;2.25;;;0.60;;
51814;SDS011;37874;53.158;6.766;2023-04-25T12:36:50;2.45;;;0.60;;
51814;SDS011;37874;53.158;6.766;2023-04-25T12:39:21;1.85;;;0.60;;
51814;SDS011;37874;53.158;6.766;2023-04-25T12:41:50;2.45;;;0.80;;
51814;SDS011;37874;53.158;6.766;2023-04-25T12:44:18;2.30;;;0.80;;
51814;SDS011;37874;53.158;6.766;2023-04-25T12:46:44;2.40;;;0.75;;
51814;SDS011;37874;53.158;6.766;2023-04-25T12:49:10;3.08;;;0.85;;
51814;SDS011;37874;53.158;6.766;2023-04-25T12:51:36;2.85;;;0.68;;
51814;SDS011;37874;53.158;6.766;2023-04-25T12:54:03;2.67;;;0.85;;
51814;SDS011;37874;53.158;6.766;2023-04-25T12:56:30;2.35;;;0.80;;
51814;SDS011;37874;53.158;6.766;2023-04-25T12:58:56;1.92;;;0.50;;
51814;SDS011;37874;53.158;6.766;2023-04-25T13:01:23;2.22;;;0.65;;
51814;SDS011;37874;53.158;6.766;2023-04-25T13:03:49;2.17;;;0.68;;
51814;SDS011;37874;53.158;6.766;2023-04-25T13:06:15;2.22;;;0.68;;
51814;SDS011;37874;53.158;6.766;2023-04-25T13:08:42;1.58;;;0.57;;
51814;SDS011;37874;53.158;6.766;2023-04-25T13:11:07;2.22;;;0.60;;
51814;SDS011;37874;53.158;6.766;2023-04-25T13:13:33;1.83;;;0.57;;
51814;SDS011;37874;53.158;6.766;2023-04-25T13:16:00;2.10;;;0.70;;
51814;SDS011;37874;53.158;6.766;2023-04-25T13:18:27;1.55;;;0.63;;
51814;SDS011;37874;53.158;6.766;2023-04-25T13:20:56;2.20;;;0.60;;
51814;SDS011;37874;53.158;6.766;2023-04-25T13:23:23;2.75;;;0.70;;
51814;SDS011;37874;53.158;6.766;2023-04-25T13:25:50;3.60;;;0.85;;
51814;SDS011;37874;53.158;6.766;2023-04-25T13:28:15;2.13;;;0.70;;
51814;SDS011;37874;53.158;6.766;2023-04-25T13:30:41;2.97;;;0.93;;
51814;SDS011;37874;53.158;6.766;2023-04-25T13:33:07;2.35;;;0.60;;
51814;SDS011;37874;53.158;6.766;2023-04-25T13:35:33;1.92;;;0.50;;
51814;SDS011;37874;53.158;6.766;2023-04-25T13:38:00;3.25;;;0.80;;
51814;SDS011;37874;53.158;6.766;2023-04-25T13:40:25;2.40;;;0.50;;
51814;SDS011;37874;53.158;6.766;2023-04-25T13:42:52;3.03;;;0.73;;
51814;SDS011;37874;53.158;6.766;2023-04-25T13:45:18;2.53;;;0.70;;
51814;SDS011;37874;53.158;6.766;2023-04-25T13:47:44;2.60;;;0.75;;
51814;SDS011;37874;53.158;6.766;2023-04-25T13:50:10;2.78;;;0.80;;
51814;SDS011;37874;53.158;6.766;2023-04-25T13:52:36;2.33;;;0.70;;
51814;SDS011;37874;53.158;6.766;2023-04-25T13:55:01;2.53;;;0.70;;
51814;SDS011;37874;53.158;6.766;2023-04-25T13:57:29;2.75;;;0.50;;
51814;SDS011;37874;53.158;6.766;2023-04-25T13:59:55;2.90;;;0.88;;
51814;SDS011;37874;53.158;6.766;2023-04-25T14:02:21;2.45;;;0.55;;
51814;SDS011;37874;53.158;6.766;2023-04-25T14:04:46;2.80;;;0.70;;
51814;SDS011;37874;53.158;6.766;2023-04-25T14:07:13;2.05;;;0.40;;
51814;SDS011;37874;53.158;6.766;2023-04-25T14:09:41;1.77;;;0.65;;
51814;SDS011;37874;53.158;6.766;2023-04-25T14:12:06;3.90;;;0.65;;
51814;SDS011;37874;53.158;6.766;2023-04-25T14:14:32;1.67;;;0.52;;
51814;SDS011;37874;53.158;6.766;2023-04-25T14:16:58;3.28;;;0.68;;
51814;SDS011;37874;53.158;6.766;2023-04-25T14:19:23;2.38;;;0.68;;
51814;SDS011;37874;53.158;6.766;2023-04-25T14:21:49;2.75;;;0.55;;
51814;SDS011;37874;53.158;6.766;2023-04-25T14:24:15;1.88;;;0.50;;
51814;SDS011;37874;53.158;6.766;2023-04-25T14:26:40;1.80;;;0.47;;
51814;SDS011;37874;53.158;6.766;2023-04-25T14:29:07;3.25;;;0.70;;
51814;SDS011;37874;53.158;6.766;2023-04-25T14:31:36;2.55;;;0.68;;
51814;SDS011;37874;53.158;6.766;2023-04-25T14:34:02;2.38;;;0.60;;
51814;SDS011;37874;53.158;6.766;2023-04-25T14:36:28;2.55;;;0.68;;
51814;SDS011;37874;53.158;6.766;2023-04-25T14:38:55;2.58;;;0.70;;
51814;SDS011;37874;53.158;6.766;2023-04-25T14:41:21;1.45;;;0.63;;
51814;SDS011;37874;53.158;6.766;2023-04-25T14:43:48;1.88;;;0.50;;
51814;SDS011;37874;53.158;6.766;2023-04-25T14:46:13;3.28;;;0.65;;
51814;SDS011;37874;53.158;6.766;2023-04-25T14:48:39;2.00;;;0.50;;
51814;SDS011;37874;53.158;6.766;2023-04-25T14:51:05;2.83;;;0.70;;
51814;SDS011;37874;53.158;6.766;2023-04-25T14:53:31;2.85;;;1.05;;
51814;SDS011;37874;53.158;6.766;2023-04-25T14:55:57;2.17;;;0.60;;
51814;SDS011;37874;53.158;6.766;2023-04-25T14:58:22;2.17;;;0.60;;
51814;SDS011;37874;53.158;6.766;2023-04-25T15:00:48;2.90;;;0.60;;
51814;SDS011;37874;53.158;6.766;2023-04-25T15:03:13;2.67;;;0.60;;
51814;SDS011;37874;53.158;6.766;2023-04-25T15:05:41;1.27;;;0.40;;
51814;SDS011;37874;53.158;6.766;2023-04-25T15:08:07;1.98;;;0.70;;
51814;SDS011;37874;53.158;6.766;2023-04-25T15:10:33;1.60;;;0.40;;
51814;SDS011;37874;53.158;6.766;2023-04-25T15:12:58;1.90;;;0.63;;
51814;SDS011;37874;53.158;6.766;2023-04-25T15:15:24;1.17;;;0.50;;
51814;SDS011;37874;53.158;6.766;2023-04-25T15:17:50;1.55;;;0.40;;
51814;SDS011;37874;53.158;6.766;2023-04-25T15:20:16;1.70;;;0.50;;
51814;SDS011;37874;53.158;6.766;2023-04-25T15:22:42;1.67;;;0.35;;
51814;SDS011;37874;53.158;6.766;2023-04-25T15:25:09;3.28;;;0.50;;
51814;SDS011;37874;53.158;6.766;2023-04-25T15:27:36;1.75;;;0.47;;
51814;SDS011;37874;53.158;6.766;2023-04-25T15:30:08;2.35;;;0.60;;
51814;SDS011;37874;53.158;6.766;2023-04-25T15:32:40;2.83;;;0.60;;
51814;SDS011;37874;53.158;6.766;2023-04-25T15:35:12;4.15;;;0.75;;
51814;SDS011;37874;53.158;6.766;2023-04-25T15:37:38;1.60;;;0.40;;
51814;SDS011;37874;53.158;6.766;2023-04-25T15:40:09;2.03;;;0.60;;
51814;SDS011;37874;53.158;6.766;2023-04-25T15:42:44;2.92;;;0.50;;
51814;SDS011;37874;53.158;6.766;2023-04-25T15:45:12;1.92;;;0.50;;
51814;SDS011;37874;53.158;6.766;2023-04-25T15:47:40;1.95;;;0.50;;
51814;SDS011;37874;53.158;6.766;2023-04-25T15:50:06;1.80;;;0.47;;
51814;SDS011;37874;53.158;6.766;2023-04-25T15:52:34;2.08;;;0.60;;
51814;SDS011;37874;53.158;6.766;2023-04-25T15:55:01;1.80;;;0.50;;
51814;SDS011;37874;53.158;6.766;2023-04-25T15:57:28;2.95;;;0.45;;
51814;SDS011;37874;53.158;6.766;2023-04-25T15:59:54;1.80;;;0.50;;
51814;SDS011;37874;53.158;6.766;2023-04-25T16:02:20;2.38;;;0.55;;
51814;SDS011;37874;53.158;6.766;2023-04-25T16:04:46;2.33;;;0.50;;
51814;SDS011;37874;53.158;6.766;2023-04-25T16:07:12;3.05;;;0.73;;
51814;SDS011;37874;53.158;6.766;2023-04-25T16:09:38;2.28;;;0.60;;
51814;SDS011;37874;53.158;6.766;2023-04-25T16:12:04;2.97;;;0.52;;
51814;SDS011;37874;53.158;6.766;2023-04-25T16:14:31;1.73;;;0.47;;
51814;SDS011;37874;53.158;6.766;2023-04-25T16:16:57;2.35;;;0.52;;
51814;SDS011;37874;53.158;6.766;2023-04-25T16:19:23;1.83;;;0.50;;
51814;SDS011;37874;53.158;6.766;2023-04-25T16:21:48;2.58;;;0.50;;
51814;SDS011;37874;53.158;6.766;2023-04-25T16:24:14;1.98;;;0.35;;
51814;SDS011;37874;53.158;6.766;2023-04-25T16:26:39;2.40;;;0.60;;
51814;SDS011;37874;53.158;6.766;2023-04-25T16:29:06;1.77;;;0.60;;
51814;SDS011;37874;53.158;6.766;2023-04-25T16:31:33;1.83;;;0.50;;
51814;SDS011;37874;53.158;6.766;2023-04-25T16:34:00;3.53;;;0.77;;
51814;SDS011;37874;53.158;6.766;2023-04-25T16:36:26;2.80;;;0.57;;
51814;SDS011;37874;53.158;6.766;2023-04-25T16:38:52;2.00;;;0.40;;
51814;SDS011;37874;53.158;6.766;2023-04-25T16:41:17;2.13;;;0.50;;
51814;SDS011;37874;53.158;6.766;2023-04-25T16:43:43;2.60;;;0.52;;
51814;SDS011;37874;53.158;6.766;2023-04-25T16:46:09;1.60;;;0.52;;
51814;SDS011;37874;53.158;6.766;2023-04-25T16:48:35;2.55;;;0.60;;
51814;SDS011;37874;53.158;6.766;2023-04-25T16:51:01;1.95;;;0.47;;
51814;SDS011;37874;53.158;6.766;2023-04-25T16:53:26;0.88;;;0.30;;
51814;SDS011;37874;53.158;6.766;2023-04-25T16:55:52;1.80;;;0.30;;
51814;SDS011;37874;53.158;6.766;2023-04-25T16:58:18;1.40;;;0.43;;
51814;SDS011;37874;53.158;6.766;2023-04-25T17:00:44;1.60;;;0.40;;
51814;SDS011;37874;53.158;6.766;2023-04-25T17:03:11;2.00;;;0.52;;
51814;SDS011;37874;53.158;6.766;2023-04-25T17:05:37;1.95;;;0.55;;
51814;SDS011;37874;53.158;6.766;2023-04-25T17:08:03;2.38;;;0.70;;
51814;SDS011;37874;53.158;6.766;2023-04-25T17:10:29;3.67;;;0.50;;
51814;SDS011;37874;53.158;6.766;2023-04-25T17:12:55;1.92;;;0.68;;
51814;SDS011;37874;53.158;6.766;2023-04-25T17:15:20;1.67;;;0.50;;
51814;SDS011;37874;53.158;6.766;2023-04-25T17:17:46;2.85;;;0.77;;
51814;SDS011;37874;53.158;6.766;2023-04-25T17:20:12;1.75;;;0.55;;
51814;SDS011;37874;53.158;6.766;2023-04-25T17:22:38;1.90;;;0.55;;
51814;SDS011;37874;53.158;6.766;2023-04-25T17:25:04;1.35;;;0.40;;
51814;SDS011;37874;53.158;6.766;2023-04-25T17:27:31;3.20;;;0.70;;
51814;SDS011;37874;53.158;6.766;2023-04-25T17:29:57;1.85;;;0.60;;
51814;SDS011;37874;53.158;6.766;2023-04-25T17:32:23;2.40;;;0.70;;
51814;SDS011;37874;53.158;6.766;2023-04-25T17:34:49;2.80;;;0.60;;
51814;SDS011;37874;53.158;6.766;2023-04-25T17:37:15;2.88;;;0.60;;
51814;SDS011;37874;53.158;6.766;2023-04-25T17:39:42;1.85;;;0.50;;
51814;SDS011;37874;53.158;6.766;2023-04-25T17:42:09;1.83;;;0.40;;
51814;SDS011;37874;53.158;6.766;2023-04-25T17:44:35;1.55;;;0.50;;
51814;SDS011;37874;53.158;6.766;2023-04-25T17:47:05;1.80;;;0.60;;
51814;SDS011;37874;53.158;6.766;2023-04-25T17:49:31;3.78;;;0.80;;
51814;SDS011;37874;53.158;6.766;2023-04-25T17:51:57;1.92;;;0.60;;
51814;SDS011;37874;53.158;6.766;2023-04-25T17:54:23;2.30;;;0.52;;
51814;SDS011;37874;53.158;6.766;2023-04-25T17:56:49;2.72;;;0.52;;
51814;SDS011;37874;53.158;6.766;2023-04-25T17:59:15;2.33;;;0.60;;
51814;SDS011;37874;53.158;6.766;2023-04-25T18:01:41;1.70;;;0.43;;
51814;SDS011;37874;53.158;6.766;2023-04-25T18:04:07;3.42;;;0.85;;
51814;SDS011;37874;53.158;6.766;2023-04-25T18:06:33;2.13;;;0.50;;
51814;SDS011;37874;53.158;6.766;2023-04-25T18:08:59;1.77;;;0.47;;
51814;SDS011;37874;53.158;6.766;2023-04-25T18:11:26;2.55;;;0.68;;
51814;SDS011;37874;53.158;6.766;2023-04-25T18:13:53;2.22;;;0.60;;
51814;SDS011;37874;53.158;6.766;2023-04-25T18:16:20;3.30;;;0.70;;
51814;SDS011;37874;53.158;6.766;2023-04-25T18:18:46;2.47;;;0.70;;
51814;SDS011;37874;53.158;6.766;2023-04-25T18:21:17;2.03;;;0.50;;
51814;SDS011;37874;53.158;6.766;2023-04-25T18:23:43;3.33;;;0.50;;
51814;SDS011;37874;53.158;6.766;2023-04-25T18:26:09;1.48;;;0.50;;
51814;SDS011;37874;53.158;6.766;2023-04-25T18:28:36;1.40;;;0.40;;
51814;SDS011;37874;53.158;6.766;2023-04-25T18:31:01;2.47;;;0.60;;
51814;SDS011;37874;53.158;6.766;2023-04-25T18:33:28;1.85;;;0.52;;
51814;SDS011;37874;53.158;6.766;2023-04-25T18:35:53;3.38;;;0.70;;
51814;SDS011;37874;53.158;6.766;2023-04-25T18:38:20;2.20;;;0.93;;
51814;SDS011;37874;53.158;6.766;2023-04-25T18:40:45;2.58;;;0.60;;
51814;SDS011;37874;53.158;6.766;2023-04-25T18:43:13;2.38;;;0.60;;
51814;SDS011;37874;53.158;6.766;2023-04-25T18:45:38;2.28;;;0.70;;
51814;SDS011;37874;53.158;6.766;2023-04-25T18:48:04;2.53;;;0.70;;
51814;SDS011;37874;53.158;6.766;2023-04-25T18:50:29;2.40;;;0.70;;
51814;SDS011;37874;53.158;6.766;2023-04-25T18:52:57;1.80;;;0.68;;
51814;SDS011;37874;53.158;6.766;2023-04-25T18:55:24;2.28;;;0.75;;
51814;SDS011;37874;53.158;6.766;2023-04-25T18:57:50;2.72;;;1.00;;
51814;SDS011;37874;53.158;6.766;2023-04-25T19:00:16;2.90;;;0.98;;
51814;SDS011;37874;53.158;6.766;2023-04-25T19:02:41;3.13;;;0.93;;